Time;durP1;ratioP1;P1;durP2;ratioP2;P2;SDS_P1;SDS_P2;PMS_P1;PMS_P2;Temp;Humidity;BMP_temperature;BMP_pressure;BME280_temperature;BME280_humidity;BME280_pressure;Samples;Min_cycle;Max_cycle;Signal;HPM_P1;HPM_P2
2024/02/18 00:00:28;;;;;;;;;8.67;6.33;;;;;12.73;65.57;102627.09;6276606;22;45391;-83
2024/02/18 00:02:53;;;;;;;;;8.67;8.67;;;;;12.72;65.52;102627.94;6252006;22;45280;-82
2024/02/18 00:05:19;;;;;;;;;6.33;6.33;;;;;12.70;65.75;102621.63;6277984;22;45387;-82
2024/02/18 00:07:44;;;;;;;;;6.67;5.00;;;;;12.66;65.66;102622.38;6252769;22;45405;-82
2024/02/18 00:10:09;;;;;;;;;9.00;8.00;;;;;12.71;65.87;102626.13;6251689;22;58949;-84
2024/02/18 00:12:35;;;;;;;;;6.00;5.00;;;;;12.68;65.53;102624.25;6250886;22;45373;-82
2024/02/18 00:15:00;;;;;;;;;4.33;4.00;;;;;12.71;65.56;102626.13;6279669;22;45758;-82
2024/02/18 00:17:25;;;;;;;;;8.00;8.00;;;;;12.64;65.75;102608.06;6280230;22;45390;-82
2024/02/18 00:19:51;;;;;;;;;8.33;5.67;;;;;12.65;65.82;102604.56;6279457;22;45860;-82
2024/02/18 00:22:16;;;;;;;;;9.67;7.67;;;;;12.63;65.88;102606.28;6279607;22;45315;-83
2024/02/18 00:24:41;;;;;;;;;7.33;7.33;;;;;12.63;65.95;102603.59;6278213;22;45432;-82
2024/02/18 00:27:09;;;;;;;;;8.67;6.67;;;;;12.61;65.94;102601.78;6279445;22;45310;-82
2024/02/18 00:29:34;;;;;;;;;7.33;5.67;;;;;12.59;65.75;102607.91;6277630;22;45354;-82
2024/02/18 00:32:00;;;;;;;;;9.67;9.67;;;;;12.54;66.03;102599.75;6249541;22;45797;-83
2024/02/18 00:34:27;;;;;;;;;6.33;5.33;;;;;12.53;65.99;102605.03;6249108;22;61857;-82
2024/02/18 00:36:52;;;;;;;;;8.33;8.33;;;;;12.52;65.98;102605.88;6249197;22;45425;-83
2024/02/18 00:39:18;;;;;;;;;8.67;8.67;;;;;12.47;66.10;102607.47;6248485;22;46767;-83
2024/02/18 00:41:43;;;;;;;;;7.33;7.33;;;;;12.46;66.18;102605.66;6248041;22;45728;-82
2024/02/18 00:44:09;;;;;;;;;8.00;8.00;;;;;12.47;66.17;102607.47;6276214;22;45456;-83
2024/02/18 00:46:34;;;;;;;;;3.67;3.67;;;;;12.47;66.06;102616.38;6276190;22;45395;-83
2024/02/18 00:49:00;;;;;;;;;6.33;5.00;;;;;12.48;66.16;102620.91;6278129;22;45928;-82
2024/02/18 00:52:10;;;;;;;;;7.33;7.33;;;;;12.59;65.77;102627.50;6231233;22;45855;-82
2024/02/18 00:54:36;;;;;;;;;8.00;6.33;;;;;12.49;66.04;102625.34;6279027;22;45310;-82
2024/02/18 00:57:01;;;;;;;;;7.00;7.00;;;;;12.50;66.00;102613.84;6249091;22;45193;-83
2024/02/18 00:59:27;;;;;;;;;6.00;6.00;;;;;12.43;65.83;102602.88;6276084;22;45575;-83
2024/02/18 01:01:52;;;;;;;;;7.00;5.33;;;;;12.45;65.93;102607.41;6276208;22;45598;-82
2024/02/18 01:04:18;;;;;;;;;8.33;8.00;;;;;12.47;65.90;102602.16;6250826;22;45468;-83
2024/02/18 01:06:43;;;;;;;;;6.33;6.33;;;;;12.45;65.98;102607.41;6277628;22;51001;-82
2024/02/18 01:09:09;;;;;;;;;7.33;6.33;;;;;12.40;65.61;102595.66;6275716;22;45473;-83
2024/02/18 01:11:34;;;;;;;;;9.33;7.00;;;;;12.40;65.79;102601.94;6273014;22;45407;-83
2024/02/18 01:14:01;;;;;;;;;9.00;7.00;;;;;12.43;65.87;102616.22;6279864;22;45346;-83
2024/02/18 01:16:29;;;;;;;;;7.00;7.00;;;;;12.46;65.78;102614.56;6251347;22;45253;-83
2024/02/18 01:18:55;;;;;;;;;7.67;7.67;;;;;12.39;65.83;102610.75;6279392;22;45345;-83
2024/02/18 01:21:20;;;;;;;;;8.00;7.00;;;;;12.39;65.88;102615.19;6278176;22;45221;-83
2024/02/18 01:23:46;;;;;;;;;7.00;7.00;;;;;12.39;65.79;102615.19;6248968;22;45404;-83
2024/02/18 01:26:12;;;;;;;;;5.00;4.00;;;;;12.37;65.99;102620.47;6277851;22;45229;-83
2024/02/18 01:28:38;;;;;;;;;9.33;6.00;;;;;12.34;65.94;102616.78;6274391;22;48041;-83
2024/02/18 01:31:03;;;;;;;;;8.67;6.67;;;;;12.33;66.00;102605.22;6277209;22;45315;-83
2024/02/18 01:33:29;;;;;;;;;9.00;7.33;;;;;12.33;65.73;102606.97;6276861;22;45430;-83
2024/02/18 01:35:54;;;;;;;;;5.67;5.67;;;;;12.26;66.04;102602.25;6248153;22;45498;-83
2024/02/18 01:38:20;;;;;;;;;2.33;1.00;;;;;12.27;66.00;102604.09;6249753;22;47708;-84
2024/02/18 01:40:45;;;;;;;;;8.00;8.00;;;;;12.27;65.95;102610.31;6275610;22;45318;-83
2024/02/18 01:43:13;;;;;;;;;9.67;9.00;;;;;12.30;66.06;102615.78;6277688;22;44855;-82
2024/02/18 01:45:46;;;;;;;;;5.00;5.00;;;;;12.39;65.67;102605.44;6250894;22;45281;-82
2024/02/18 01:48:13;;;;;;;;;8.00;6.67;;;;;12.36;66.12;102601.72;6248444;22;46844;-82
2024/02/18 01:50:39;;;;;;;;;5.00;5.00;;;;;12.31;65.85;102596.25;6275816;22;44780;-83
2024/02/18 01:53:05;;;;;;;;;8.33;5.33;;;;;12.30;65.79;102583.78;6277298;22;45339;-82
2024/02/18 01:55:31;;;;;;;;;8.00;8.00;;;;;12.29;65.92;102591.72;6277635;22;45312;-83
2024/02/18 01:57:58;;;;;;;;;8.67;8.67;;;;;12.27;65.78;102578.31;6276261;22;45521;-84
2024/02/18 02:00:24;;;;;;;;;10.33;8.00;;;;;12.26;66.02;102570.25;6248714;22;45441;-82
2024/02/18 02:02:50;;;;;;;;;7.00;7.00;;;;;12.24;65.98;102575.53;6248539;22;45436;-82
2024/02/18 02:05:18;;;;;;;;;4.67;4.67;;;;;12.30;66.12;102569.50;6275908;22;45455;-83
2024/02/18 02:07:44;;;;;;;;;7.00;7.00;;;;;12.23;65.89;102568.38;6276149;22;46054;-82
2024/02/18 02:10:14;;;;;;;;;4.67;4.67;;;;;12.23;65.91;102579.03;6275397;22;45337;-82
2024/02/18 02:12:41;;;;;;;;;3.00;3.00;;;;;12.25;66.13;102572.00;6276362;22;45415;-83
2024/02/18 02:15:11;;;;;;;;;4.33;4.33;;;;;12.30;66.09;102577.50;6277280;22;45299;-82
2024/02/18 02:17:37;;;;;;;;;9.00;8.00;;;;;12.30;65.79;102574.84;6275092;22;46824;-82
2024/02/18 02:20:09;;;;;;;;;6.33;6.33;;;;;12.25;65.79;102568.44;6251185;22;45387;-83
2024/02/18 02:22:36;;;;;;;;;6.67;6.33;;;;;12.25;66.06;102571.09;6249534;22;44916;-82
2024/02/18 02:28:25;;;;;;;;;6.33;6.33;;;;;12.24;65.94;102571.94;6279788;22;45778;-83
2024/02/18 02:30:52;;;;;;;;;9.67;5.33;;;;;12.21;65.94;102567.41;6224572;22;45658;-83
2024/02/18 02:33:18;;;;;;;;;5.00;5.00;;;;;12.14;65.76;102555.63;6250674;22;45398;-83
2024/02/18 02:35:44;;;;;;;;;7.33;5.67;;;;;12.12;66.15;102557.31;6249072;22;45683;-83
2024/02/18 02:38:57;;;;;;;;;5.00;5.00;;;;;12.26;66.19;102557.84;6274682;22;45991;-82
2024/02/18 02:41:22;;;;;;;;;4.00;4.00;;;;;12.16;66.09;102555.69;6249444;22;45571;-83
2024/02/18 02:43:47;;;;;;;;;5.00;5.00;;;;;12.15;66.25;102562.75;6278143;22;44834;-83
2024/02/18 02:46:13;;;;;;;;;6.67;6.33;;;;;12.14;66.15;102547.63;6250371;22;45524;-83
2024/02/18 02:48:38;;;;;;;;;4.33;3.00;;;;;12.09;66.33;102534.97;6275631;22;47502;-84
2024/02/18 02:51:04;;;;;;;;;4.33;4.33;;;;;12.12;66.27;102546.66;6278010;22;45518;-83
2024/02/18 02:53:29;;;;;;;;;7.00;7.00;;;;;12.07;66.48;102532.22;6277539;22;45323;-83
2024/02/18 02:55:54;;;;;;;;;7.00;2.33;;;;;12.10;66.37;102531.41;6277081;22;45371;-83
2024/02/18 02:58:21;;;;;;;;;9.00;8.00;;;;;12.12;66.13;102528.00;6277699;22;54829;-82
2024/02/18 03:00:47;;;;;;;;;5.33;5.33;;;;;12.10;66.34;102519.03;6248942;22;45379;-83
2024/02/18 03:03:12;;;;;;;;;5.00;5.00;;;;;12.09;66.49;102509.19;6277652;22;45866;-83
2024/02/18 03:05:37;;;;;;;;;5.00;5.00;;;;;12.09;66.37;102509.19;6277184;22;45425;-83
2024/02/18 03:08:03;;;;;;;;;8.00;5.00;;;;;12.08;66.71;102501.13;6249343;22;47098;-83
2024/02/18 03:10:28;;;;;;;;;6.33;6.33;;;;;12.00;66.59;102500.88;6278718;22;45326;-82
2024/02/18 03:12:54;;;;;;;;;7.00;7.00;;;;;12.00;66.68;102498.22;6277949;22;45284;-83
2024/02/18 03:15:20;;;;;;;;;4.67;4.67;;;;;11.98;66.78;102497.25;6250417;22;45308;-82
2024/02/18 03:17:45;;;;;;;;;5.00;5.00;;;;;11.95;67.00;102495.34;6277324;22;46078;-81
2024/02/18 03:20:11;;;;;;;;;6.33;6.33;;;;;11.94;66.99;102493.56;6279143;22;45264;-82
2024/02/18 03:22:37;;;;;;;;;8.00;5.67;;;;;11.85;66.95;102484.25;6275520;22;45401;-82
2024/02/18 03:25:03;;;;;;;;;5.00;5.00;;;;;11.90;67.06;102488.97;6250145;22;45691;-82
2024/02/18 03:27:29;;;;;;;;;8.33;7.00;;;;;11.94;67.11;102487.31;6252093;22;48269;-83
2024/02/18 03:29:54;;;;;;;;;5.00;5.00;;;;;11.87;67.27;102474.56;6250851;22;45376;-82
2024/02/18 03:32:21;;;;;;;;;8.33;8.33;;;;;11.90;67.20;102474.72;6249326;22;45475;-83
2024/02/18 03:34:47;;;;;;;;;7.33;7.00;;;;;11.85;67.34;102465.59;6277877;22;45281;-83
2024/02/18 03:37:13;;;;;;;;;6.33;6.33;;;;;11.81;67.75;102465.50;6279270;22;45383;-83
2024/02/18 03:39:38;;;;;;;;;7.00;7.00;;;;;11.77;67.84;102465.31;6253105;22;45241;-82
2024/02/18 03:42:04;;;;;;;;;8.67;7.67;;;;;11.75;67.74;102454.59;6252106;22;45264;-82
2024/02/18 03:44:30;;;;;;;;;10.33;10.33;;;;;11.77;68.17;102463.56;6251332;22;45490;-82
2024/02/18 03:46:55;;;;;;;;;8.00;8.00;;;;;11.75;67.74;102454.59;6276612;22;46006;-82
2024/02/18 03:49:20;;;;;;;;;6.33;6.33;;;;;11.73;67.94;102442.97;6248266;22;45288;-82
2024/02/18 03:51:46;;;;;;;;;7.33;5.67;;;;;11.76;68.20;102444.88;6249412;22;45313;-84
2024/02/18 03:54:13;;;;;;;;;8.00;7.67;;;;;11.72;68.23;102435.84;6276245;22;45252;-82
2024/02/18 03:56:39;;;;;;;;;8.00;7.33;;;;;11.69;68.30;102437.47;6279850;22;47578;-83
2024/02/18 03:59:04;;;;;;;;;7.00;7.00;;;;;11.69;68.43;102427.72;6310227;22;45372;-83
2024/02/18 04:01:29;;;;;;;;;8.00;8.00;;;;;11.71;68.60;102439.34;6284302;22;45387;-83
2024/02/18 04:03:55;;;;;;;;;8.67;7.00;;;;;11.69;68.62;102432.16;6282661;22;45347;-82
2024/02/18 04:06:20;;;;;;;;;9.00;8.33;;;;;11.69;68.51;102427.72;6281932;22;47463;-82
2024/02/18 04:08:46;;;;;;;;;5.33;5.33;;;;;11.72;68.76;102435.84;6309315;22;45378;-82
2024/02/18 04:11:17;;;;;;;;;7.67;7.67;;;;;11.74;68.59;102422.56;6280822;22;45399;-82
2024/02/18 04:13:43;;;;;;;;;9.00;9.00;;;;;11.73;68.52;102407.41;6280453;22;45296;-82
2024/02/18 04:16:09;;;;;;;;;9.00;9.00;;;;;11.75;68.62;102416.38;6305177;22;47815;-83
2024/02/18 04:18:35;;;;;;;;;8.00;8.00;;;;;11.75;68.55;102411.94;6278458;22;45405;-82
2024/02/18 04:21:00;;;;;;;;;9.00;7.00;;;;;11.77;68.23;102410.25;6307789;22;45299;-82
2024/02/18 04:23:25;;;;;;;;;12.00;9.00;;;;;11.82;68.42;102416.66;6309586;22;45393;-83
2024/02/18 04:25:51;;;;;;;;;9.00;8.33;;;;;11.80;68.40;102413.03;6309052;22;48248;-82
2024/02/18 04:28:17;;;;;;;;;8.00;8.00;;;;;11.85;68.58;102405.19;6306869;22;45459;-82
2024/02/18 04:30:43;;;;;;;;;4.00;4.00;;;;;11.77;68.60;102404.91;6278499;22;45317;-83
2024/02/18 04:33:08;;;;;;;;;9.33;7.67;;;;;11.77;68.57;102402.25;6308364;22;45618;-82
2024/02/18 04:35:33;;;;;;;;;5.67;5.67;;;;;11.77;68.82;102388.03;6310332;22;46050;-82
2024/02/18 04:37:59;;;;;;;;;11.33;9.00;;;;;11.76;68.71;102389.78;6309830;22;45323;-82
2024/02/18 04:40:25;;;;;;;;;7.00;7.00;;;;;11.79;68.78;102387.22;6309345;22;45353;-82
2024/02/18 04:42:50;;;;;;;;;8.67;7.00;;;;;11.77;68.86;102383.59;6308272;22;45315;-82
2024/02/18 04:45:16;;;;;;;;;5.00;5.00;;;;;11.80;68.85;102388.16;6307624;22;45357;-82
2024/02/18 04:47:41;;;;;;;;;9.00;7.00;;;;;11.81;68.72;102385.53;6306043;22;45328;-83
2024/02/18 04:50:07;;;;;;;;;9.67;9.33;;;;;11.81;68.90;102390.88;6308951;22;45456;-83
2024/02/18 04:52:34;;;;;;;;;9.33;9.00;;;;;11.76;68.80;102387.13;6281798;22;45540;-83
2024/02/18 04:55:02;;;;;;;;;6.33;6.33;;;;;11.81;69.04;102379.28;6309881;22;46276;-83
2024/02/18 04:57:28;;;;;;;;;8.00;7.67;;;;;11.79;68.87;102376.56;6312017;22;45652;-83
2024/02/18 04:59:53;;;;;;;;;7.00;7.00;;;;;11.76;68.83;102372.91;6310953;22;45136;-83
2024/02/18 05:02:18;;;;;;;;;9.00;4.67;;;;;11.77;69.02;102372.94;6311541;22;45321;-83
2024/02/18 05:08:05;;;;;;;;;9.33;7.67;;;;;11.84;68.82;102378.50;6308520;22;45316;-83
2024/02/18 05:10:31;;;;;;;;;8.67;8.67;;;;;11.86;68.76;102385.69;6279877;22;45352;-83
2024/02/18 05:12:56;;;;;;;;;8.33;8.33;;;;;11.88;69.01;102380.41;6281215;22;45327;-82
2024/02/18 05:15:26;;;;;;;;;8.00;7.00;;;;;11.90;69.10;102373.41;6308516;22;46985;-81
2024/02/18 05:21:13;;;;;;;;;9.00;8.33;;;;;11.82;69.32;102374.00;6308405;22;45326;-82
2024/02/18 05:23:39;;;;;;;;;5.00;5.00;;;;;11.86;69.25;102382.13;6310883;22;45397;-82
2024/02/18 05:26:05;;;;;;;;;5.33;5.33;;;;;11.82;69.12;102367.78;6282023;22;47309;-82
2024/02/18 05:28:31;;;;;;;;;7.67;7.00;;;;;11.82;69.17;102368.69;6309426;22;45617;-83
2024/02/18 05:34:18;;;;;;;;;7.33;7.33;;;;;11.79;69.25;102376.56;6310743;22;45367;-83
2024/02/18 05:36:43;;;;;;;;;5.67;5.67;;;;;11.80;69.33;102375.72;6282011;22;46547;-83
2024/02/18 05:39:12;;;;;;;;;11.33;6.67;;;;;11.92;69.17;102377.03;6310201;22;45275;-83
2024/02/18 05:41:38;;;;;;;;;8.00;7.00;;;;;11.83;69.07;102364.25;6281285;22;45510;-83
2024/02/18 05:44:03;;;;;;;;;8.00;8.00;;;;;11.84;69.37;102362.50;6278868;22;45343;-83
2024/02/18 05:46:29;;;;;;;;;9.00;7.67;;;;;11.79;69.79;102357.88;6306125;22;45361;-83
2024/02/18 05:48:54;;;;;;;;;4.67;4.67;;;;;11.76;69.87;102349.81;6280525;22;45397;-82
2024/02/18 05:51:20;;;;;;;;;8.00;5.67;;;;;11.80;69.68;102362.38;6281010;22;45443;-82
2024/02/18 05:53:46;;;;;;;;;7.00;7.00;;;;;11.88;70.04;102367.09;6280260;22;45474;-83
2024/02/18 05:56:11;;;;;;;;;2.67;2.67;;;;;11.85;69.92;102369.63;6282895;22;48310;-83
2024/02/18 05:58:43;;;;;;;;;5.67;5.67;;;;;11.86;69.86;102366.13;6283816;22;45767;-83
2024/02/18 06:01:09;;;;;;;;;7.00;4.00;;;;;11.84;69.97;102355.41;6306948;22;45389;-83
2024/02/18 06:03:34;;;;;;;;;9.00;7.00;;;;;11.86;70.13;102368.81;6307199;22;45415;-82
2024/02/18 06:06:00;;;;;;;;;7.00;5.33;;;;;11.92;70.20;102355.72;6280901;22;46131;-82
2024/02/18 06:08:27;;;;;;;;;6.67;6.67;;;;;12.08;70.10;102366.03;6307550;22;45452;-83
2024/02/18 06:10:52;;;;;;;;;8.67;7.67;;;;;11.98;70.23;102366.59;6280315;22;45302;-82
2024/02/18 06:13:18;;;;;;;;;9.67;7.00;;;;;12.05;70.42;102360.59;6280932;22;45370;-82
2024/02/18 06:15:43;;;;;;;;;7.00;5.33;;;;;12.01;70.28;102345.34;6305270;22;47519;-83
2024/02/18 06:18:10;;;;;;;;;7.00;7.00;;;;;12.03;70.58;102356.97;6306213;22;45394;-83
2024/02/18 06:23:57;;;;;;;;;7.33;7.33;;;;;11.93;71.39;102306.84;6306465;22;45342;-84
2024/02/18 06:26:24;;;;;;;;;7.67;4.33;;;;;11.86;71.38;102313.72;6304674;22;47595;-83
2024/02/18 06:28:49;;;;;;;;;6.33;5.00;;;;;11.79;71.51;102307.25;6306252;22;45371;-83
2024/02/18 06:31:14;;;;;;;;;7.67;7.00;;;;;11.78;71.44;102297.44;6278273;22;45533;-83
2024/02/18 06:37:02;;;;;;;;;8.67;7.00;;;;;11.69;72.97;102289.13;6307421;22;45603;-83
2024/02/18 06:39:27;;;;;;;;;8.33;8.00;;;;;11.67;72.56;102301.50;6305166;22;45379;-82
2024/02/18 06:41:54;;;;;;;;;8.67;7.67;;;;;11.69;72.79;102298.88;6308415;22;45334;-83
2024/02/18 06:44:21;;;;;;;;;8.33;7.00;;;;;11.69;72.50;102294.47;6308073;22;45432;-82
2024/02/18 06:50:08;;;;;;;;;6.33;4.33;;;;;11.83;72.74;102308.25;6308881;22;45379;-82
2024/02/18 06:52:34;;;;;;;;;7.00;7.00;;;;;11.83;72.99;102302.94;6308576;22;45361;-82
2024/02/18 06:54:59;;;;;;;;;8.67;8.00;;;;;11.89;73.24;102308.50;6280179;22;45446;-84
2024/02/18 06:57:24;;;;;;;;;7.33;6.33;;;;;11.86;73.61;102295.06;6306104;22;45325;-83
2024/02/18 06:59:50;;;;;;;;;8.33;7.00;;;;;11.85;73.53;102300.31;6304117;22;45314;-82
2024/02/18 07:02:15;;;;;;;;;8.00;8.00;;;;;11.78;73.87;102297.44;6306431;22;45319;-83
2024/02/18 07:04:41;;;;;;;;;10.00;8.67;;;;;11.80;74.03;102279.75;6278779;22;45352;-82
2024/02/18 07:07:06;;;;;;;;;7.33;5.67;;;;;11.84;73.71;102280.78;6304630;22;61896;-83
2024/02/18 07:09:32;;;;;;;;;5.00;5.00;;;;;11.80;74.59;102269.09;6279273;22;45234;-83
2024/02/18 07:11:57;;;;;;;;;6.00;6.00;;;;;11.77;74.63;102254.75;6307431;22;45307;-83
2024/02/18 07:14:22;;;;;;;;;7.00;7.00;;;;;11.68;74.37;102260.69;6307833;22;45576;-83
2024/02/18 07:16:48;;;;;;;;;10.00;7.00;;;;;11.70;74.35;102266.97;6307634;22;47112;-83
2024/02/18 07:19:13;;;;;;;;;12.67;9.00;;;;;11.68;74.39;102260.69;6309517;22;45769;-83
2024/02/18 07:21:38;;;;;;;;;7.33;7.33;;;;;11.67;74.72;102253.53;6311384;22;45379;-83
2024/02/18 07:24:06;;;;;;;;;9.00;8.00;;;;;11.67;74.29;102252.63;6309913;22;45465;-83
2024/02/18 07:26:31;;;;;;;;;8.33;6.33;;;;;11.65;74.46;102239.25;6307420;22;48041;-83
2024/02/18 07:28:57;;;;;;;;;7.00;4.33;;;;;11.63;74.45;102234.72;6280572;22;45321;-83
2024/02/18 07:31:22;;;;;;;;;8.67;8.33;;;;;11.63;75.03;102230.28;6279684;22;45338;-83
2024/02/18 07:33:47;;;;;;;;;9.00;7.33;;;;;11.63;74.83;102240.06;6278435;22;45450;-84
2024/02/18 07:36:13;;;;;;;;;7.00;5.00;;;;;11.62;74.79;102233.81;6308240;22;45347;-83
2024/02/18 07:38:39;;;;;;;;;7.67;7.67;;;;;11.62;74.72;102244.47;6280326;22;45129;-83
2024/02/18 07:41:04;;;;;;;;;6.67;6.67;;;;;11.60;74.99;102238.19;6280043;22;45484;-83
2024/02/18 07:43:31;;;;;;;;;8.00;7.00;;;;;11.66;74.46;102235.75;6308419;22;45245;-83
2024/02/18 07:46:03;;;;;;;;;9.33;7.00;;;;;11.79;74.83;102237.03;6253762;22;46933;-83
2024/02/18 07:48:28;;;;;;;;;9.00;7.00;;;;;11.73;74.70;102250.16;6279799;22;45366;-83
2024/02/18 07:50:54;;;;;;;;;5.00;5.00;;;;;11.71;74.69;102238.56;6306849;22;45401;-83
2024/02/18 07:53:19;;;;;;;;;8.33;7.00;;;;;11.77;74.53;102247.66;6303001;22;45417;-83
2024/02/18 07:55:51;;;;;;;;;11.33;9.67;;;;;11.89;74.46;102251.63;6277721;22;45336;-83
2024/02/18 07:58:16;;;;;;;;;8.67;7.00;;;;;11.82;74.39;102259.38;6249191;22;45977;-83
2024/02/18 08:00:42;;;;;;;;;10.00;9.00;;;;;11.88;74.24;102252.47;6250243;22;45535;-83
2024/02/18 08:03:07;;;;;;;;;5.33;5.33;;;;;11.97;74.27;102263.44;6277905;22;45301;-83
2024/02/18 08:05:33;;;;;;;;;5.00;5.00;;;;;12.05;74.54;102264.59;6249695;22;48057;-84
2024/02/18 08:07:58;;;;;;;;;3.00;1.00;;;;;12.13;73.95;102260.41;6249658;22;45358;-83
2024/02/18 08:10:24;;;;;;;;;6.67;4.00;;;;;12.20;74.16;102254.44;6278993;22;45293;-83
2024/02/18 08:12:49;;;;;;;;;5.00;4.00;;;;;12.26;73.90;102244.78;6279733;22;45357;-83
2024/02/18 08:15:15;;;;;;;;;8.33;5.67;;;;;12.30;73.75;102225.34;6277786;22;45601;-83
2024/02/18 08:17:41;;;;;;;;;5.00;5.00;;;;;12.36;73.60;102238.88;6250361;22;45383;-83
2024/02/18 08:20:07;;;;;;;;;8.00;4.33;;;;;12.39;73.41;102233.66;6250700;22;45395;-83
2024/02/18 08:22:32;;;;;;;;;3.00;3.00;;;;;12.43;73.31;102230.22;6250666;22;45430;-83
2024/02/18 08:24:58;;;;;;;;;3.00;3.00;;;;;12.46;73.31;102226.72;6252298;22;47051;-82
2024/02/18 08:27:26;;;;;;;;;4.00;4.00;;;;;12.49;73.05;102222.41;6251040;22;45394;-83
2024/02/18 08:29:51;;;;;;;;;5.67;5.67;;;;;12.53;73.11;102221.63;6226415;22;45516;-84
2024/02/18 08:32:16;;;;;;;;;9.67;6.33;;;;;12.59;73.06;102227.16;6252751;22;45357;-83
2024/02/18 08:34:42;;;;;;;;;8.67;5.00;;;;;12.64;72.80;102231.72;6250636;22;47135;-84
2024/02/18 08:37:07;;;;;;;;;6.33;4.00;;;;;12.68;72.41;102242.53;6250394;22;45373;-84
2024/02/18 08:39:33;;;;;;;;;4.33;4.33;;;;;12.67;72.72;102240.72;6276600;22;45355;-84
2024/02/18 08:41:58;;;;;;;;;7.67;5.67;;;;;12.70;72.42;102246.13;6275844;22;54434;-83
2024/02/18 08:44:25;;;;;;;;;9.67;6.33;;;;;12.75;72.43;102247.19;6278684;22;45557;-83
2024/02/18 08:46:50;;;;;;;;;3.33;3.33;;;;;12.75;72.61;102254.31;6251945;22;45356;-82
2024/02/18 08:49:16;;;;;;;;;5.00;5.00;;;;;12.78;72.93;102243.69;6252526;22;45402;-83
2024/02/18 08:51:43;;;;;;;;;6.67;5.00;;;;;12.79;73.67;102227.72;6279015;22;45351;-83
2024/02/18 08:54:09;;;;;;;;;3.00;3.00;;;;;12.72;73.89;102244.41;6265621;22;47046;-83
2024/02/18 08:56:34;;;;;;;;;6.67;5.00;;;;;12.75;73.95;102240.97;6280684;22;61162;-83
2024/02/18 08:58:59;;;;;;;;;6.33;5.00;;;;;12.75;74.49;102262.31;6309284;22;45431;-83
2024/02/18 09:01:25;;;;;;;;;4.00;4.00;;;;;12.78;75.54;102273.97;6308145;22;45461;-83
2024/02/18 09:03:50;;;;;;;;;4.33;3.00;;;;;12.75;75.86;102276.56;6307118;22;47014;-83
2024/02/18 09:06:15;;;;;;;;;4.67;4.00;;;;;12.75;76.46;102271.22;6309191;22;45343;-83
2024/02/18 09:08:42;;;;;;;;;7.00;3.00;;;;;12.89;77.11;102287.66;6307538;22;45336;-83
2024/02/18 09:11:08;;;;;;;;;4.00;4.00;;;;;12.85;76.68;102285.75;6308056;22;45396;-83
2024/02/18 09:13:33;;;;;;;;;3.00;3.00;;;;;12.88;77.50;102296.50;6307679;22;45307;-84
2024/02/18 09:16:05;;;;;;;;;5.33;4.00;;;;;12.84;77.10;102272.34;6308355;22;45349;-83
2024/02/18 09:18:32;;;;;;;;;3.00;3.00;;;;;12.82;77.68;102264.28;6279997;22;45308;-84
2024/02/18 09:20:57;;;;;;;;;6.67;5.67;;;;;12.78;78.04;102268.63;6308020;22;45377;-83
2024/02/18 09:23:23;;;;;;;;;5.33;5.33;;;;;12.77;78.42;102255.25;6309719;22;47507;-83
2024/02/18 09:25:49;;;;;;;;;8.00;2.33;;;;;12.76;78.29;102248.09;6310921;22;45331;-84
2024/02/18 09:28:15;;;;;;;;;4.00;4.00;;;;;12.67;78.85;102259.41;6310382;22;45397;-83
2024/02/18 09:30:41;;;;;;;;;4.00;4.00;;;;;12.67;78.80;102247.84;6308127;22;45382;-83
2024/02/18 09:33:11;;;;;;;;;3.67;3.67;;;;;12.65;78.91;102244.22;6256322;22;48417;-83
2024/02/18 09:35:36;;;;;;;;;4.67;3.00;;;;;12.60;78.31;102230.72;6307218;22;45520;-83
2024/02/18 09:38:04;;;;;;;;;2.00;2.00;;;;;12.65;78.38;102239.78;6310292;22;45437;-83
2024/02/18 09:40:29;;;;;;;;;3.00;3.00;;;;;12.72;78.93;102246.19;6280823;22;45298;-84
2024/02/18 09:42:55;;;;;;;;;4.67;3.00;;;;;12.79;78.59;102246.41;6311482;22;45363;-83
2024/02/18 09:45:28;;;;;;;;;2.00;2.00;;;;;12.94;78.41;102232.59;6283280;22;45685;-83
2024/02/18 09:47:56;;;;;;;;;2.67;2.67;;;;;12.93;78.99;102220.13;6309384;22;45373;-83
2024/02/18 09:50:23;;;;;;;;;3.00;2.00;;;;;13.04;78.34;102232.88;6279933;22;45315;-84
2024/02/18 09:52:49;;;;;;;;;3.00;3.00;;;;;13.11;78.14;102219.72;6307725;22;46174;-83
2024/02/18 09:55:16;;;;;;;;;2.00;2.00;;;;;13.24;77.89;102215.59;6275871;22;45406;-83
2024/02/18 09:57:41;;;;;;;;;2.33;2.33;;;;;13.27;77.43;102202.34;6276691;22;45452;-83
2024/02/18 10:00:11;;;;;;;;;3.00;3.00;;;;;13.37;77.70;102196.41;6280111;22;45409;-83
2024/02/18 10:02:37;;;;;;;;;3.00;3.00;;;;;13.38;77.27;102198.19;6277865;22;47046;-83
2024/02/18 10:05:06;;;;;;;;;6.67;5.67;;;;;13.43;77.08;102184.06;6308964;22;45587;-82
2024/02/18 10:07:33;;;;;;;;;4.00;4.00;;;;;13.43;77.11;102179.59;6307574;22;45434;-83
2024/02/18 10:10:01;;;;;;;;;4.67;4.67;;;;;13.39;76.50;102183.06;6280750;22;45338;-82
2024/02/18 10:12:29;;;;;;;;;3.67;3.67;;;;;13.35;76.95;102192.78;6307570;22;45563;-83
2024/02/18 10:14:56;;;;;;;;;5.67;5.67;;;;;13.29;76.91;102197.97;6279231;22;45434;-82
2024/02/18 10:17:22;;;;;;;;;5.33;4.00;;;;;13.23;77.19;102195.13;6279835;22;45818;-83
2024/02/18 10:19:47;;;;;;;;;4.00;4.00;;;;;13.20;76.77;102184.34;6280115;22;45450;-82
2024/02/18 10:22:13;;;;;;;;;4.33;4.33;;;;;13.28;77.33;102197.91;6283686;22;48205;-82
2024/02/18 10:24:38;;;;;;;;;4.00;3.00;;;;;13.28;77.18;102204.13;6310147;22;45310;-82
2024/02/18 10:27:05;;;;;;;;;6.67;5.00;;;;;13.36;76.55;102193.69;6308118;22;45232;-82
2024/02/18 10:29:31;;;;;;;;;6.67;6.67;;;;;13.36;76.98;102194.59;6281096;22;45489;-82
2024/02/18 10:31:56;;;;;;;;;11.33;9.00;;;;;13.34;77.11;102201.66;6307498;22;45937;-83
2024/02/18 10:34:22;;;;;;;;;4.67;4.67;;;;;13.35;77.56;102198.16;6307060;22;45324;-83
2024/02/18 10:36:52;;;;;;;;;4.00;4.00;;;;;13.40;76.70;102185.78;6280785;22;45632;-83
2024/02/18 10:39:21;;;;;;;;;4.00;4.00;;;;;13.51;76.85;102191.44;6308910;22;45327;-84
2024/02/18 10:42:02;;;;;;;;;9.33;8.00;;;;;13.57;77.00;102191.56;6285298;22;47790;-84
2024/02/18 10:44:27;;;;;;;;;9.00;4.33;;;;;13.52;77.30;102189.66;6316229;22;44968;-84
2024/02/18 10:46:54;;;;;;;;;8.00;4.00;;;;;13.54;77.32;102191.47;6314831;22;44766;-84
2024/02/18 10:49:41;;;;;;;;;6.33;6.33;;;;;13.64;77.46;102189.06;6291164;22;44772;-84
2024/02/18 10:52:21;;;;;;;;;4.33;4.00;;;;;13.60;77.65;102188.06;6290234;22;47223;-83
2024/02/18 10:55:26;;;;;;;;;8.67;6.00;;;;;13.78;77.92;102187.63;6317336;22;45362;-84
2024/02/18 10:58:07;;;;;;;;;10.33;8.00;;;;;13.82;78.13;102169.88;6155116;23;44770;-78
2024/02/18 11:00:39;;;;;;;;;12.00;10.00;;;;;13.90;78.23;102182.56;6152980;23;45328;-78
2024/02/18 11:03:35;;;;;;;;;12.67;11.67;;;;;14.01;78.63;102180.13;6128841;23;47221;-83
2024/02/18 11:06:01;;;;;;;;;8.67;5.33;;;;;13.85;78.67;102176.19;6129439;23;45873;-83
2024/02/18 11:08:31;;;;;;;;;9.33;4.00;;;;;13.77;78.98;102175.09;6153080;23;45467;-83
2024/02/18 11:10:58;;;;;;;;;19.67;16.67;;;;;13.69;78.92;102168.66;6156969;23;45487;-83
2024/02/18 11:13:24;;;;;;;;;8.33;7.67;;;;;13.65;79.04;102164.09;6154300;23;45415;-83
2024/02/18 11:15:50;;;;;;;;;8.33;6.33;;;;;13.71;79.53;102158.91;6128623;23;45301;-82
2024/02/18 11:18:16;;;;;;;;;8.00;8.00;;;;;13.67;79.88;102157.03;6154195;23;45476;-79
2024/02/18 11:20:42;;;;;;;;;19.67;19.33;;;;;13.62;80.18;102154.25;6152376;23;45307;-78
2024/02/18 11:23:07;;;;;;;;;17.00;14.33;;;;;13.56;80.88;102146.09;6127737;23;48515;-78
2024/02/18 11:25:33;;;;;;;;;26.00;24.00;;;;;13.52;81.23;102141.53;6153223;23;45459;-78
2024/02/18 11:27:59;;;;;;;;;26.67;23.00;;;;;13.53;81.35;102159.38;6153444;23;45592;-78
2024/02/18 11:30:24;;;;;;;;;14.33;14.00;;;;;13.52;81.53;102155.78;6153394;23;45504;-79
2024/02/18 11:32:49;;;;;;;;;10.00;10.00;;;;;13.50;81.85;102143.28;6297645;22;45387;-79
2024/02/18 11:35:19;;;;;;;;;10.67;10.67;;;;;13.52;82.24;102138.88;6280976;22;45458;-79
2024/02/18 11:37:44;;;;;;;;;10.67;10.67;;;;;13.37;82.33;102115.31;6308641;22;45488;-81
2024/02/18 11:40:15;;;;;;;;;19.00;17.00;;;;;13.39;82.94;102102.91;6309183;22;44786;-79
2024/02/18 11:42:41;;;;;;;;;11.00;11.00;;;;;13.38;82.75;102111.78;6279442;22;46988;-79
2024/02/18 11:45:12;;;;;;;;;10.00;8.67;;;;;13.52;83.20;102117.47;6278716;22;45860;-80